createdAt,value
2022-10-19T00:01:15.532Z,16.15
2022-10-19T00:03:43.463Z,15.60
2022-10-19T00:06:13.008Z,12.73
2022-10-19T00:08:40.495Z,13.43
2022-10-19T00:11:08.718Z,13.20
2022-10-19T00:13:36.547Z,17.77
2022-10-19T00:16:11.347Z,24.45
2022-10-19T00:18:39.535Z,25.27
2022-10-19T00:21:08.959Z,24.17
2022-10-19T00:23:37.109Z,22.23
2022-10-19T00:26:05.130Z,23.73
2022-10-19T00:28:35.601Z,26.23
2022-10-19T00:31:05.537Z,20.58
2022-10-19T00:33:33.536Z,20.35
2022-10-19T00:36:01.127Z,20.58
2022-10-19T00:38:28.561Z,24.63
2022-10-19T00:40:55.989Z,23.45
2022-10-19T00:43:29.189Z,17.73
2022-10-19T00:45:56.590Z,17.65
2022-10-19T00:48:28.294Z,16.70
2022-10-19T00:50:58.540Z,18.48
2022-10-19T00:53:28.954Z,16.35
2022-10-19T00:55:58.753Z,16.42
2022-10-19T00:58:26.170Z,16.30
2022-10-19T01:00:54.032Z,18.10
2022-10-19T01:03:21.888Z,19.08
2022-10-19T01:05:49.997Z,17.48
2022-10-19T01:08:18.021Z,18.90
2022-10-19T01:10:55.690Z,16.88
2022-10-19T01:14:05.986Z,15.40
2022-10-19T01:16:57.808Z,20.58
2022-10-19T01:19:50.349Z,20.08
2022-10-19T01:22:51.289Z,18.58
2022-10-19T01:25:21.842Z,17.58
2022-10-19T01:28:03.034Z,19.73
2022-10-19T01:30:30.617Z,20.65
2022-10-19T01:33:19.922Z,15.55
2022-10-19T01:35:51.648Z,21.65
2022-10-19T01:38:46.806Z,25.20
2022-10-19T01:41:17.302Z,22.98
2022-10-19T01:44:03.859Z,23.35
2022-10-19T01:46:44.206Z,17.23
2022-10-19T01:49:18.374Z,26.63
2022-10-19T01:54:27.009Z,19.35
2022-10-19T01:56:57.089Z,17.38
2022-10-19T01:59:26.676Z,20.75
2022-10-19T02:01:56.138Z,22.70
2022-10-19T02:04:25.201Z,19.63
2022-10-19T02:06:54.631Z,20.60
2022-10-19T02:09:22.258Z,27.05
2022-10-19T02:11:57.275Z,19.75
2022-10-19T02:14:30.827Z,20.77
2022-10-19T02:17:28.338Z,25.63
2022-10-19T02:19:55.884Z,21.92
2022-10-19T02:22:23.296Z,22.63
2022-10-19T02:24:51.095Z,19.33
2022-10-19T02:27:19.355Z,23.50
2022-10-19T02:29:47.118Z,31.10
2022-10-19T02:32:15.329Z,30.83
2022-10-19T02:34:44.112Z,36.65
2022-10-19T02:37:12.123Z,31.52
2022-10-19T02:39:41.594Z,28.50
2022-10-19T02:42:20.690Z,28.45
2022-10-19T02:44:53.523Z,30.08
2022-10-19T02:47:28.148Z,24.55
2022-10-19T02:49:55.995Z,32.78
2022-10-19T02:52:23.519Z,25.23
2022-10-19T02:54:51.080Z,31.90
2022-10-19T02:57:22.054Z,27.13
2022-10-19T02:59:49.940Z,24.30
2022-10-19T03:02:18.944Z,24.17
2022-10-19T03:07:17.539Z,23.60
2022-10-19T03:09:45.268Z,21.17
2022-10-19T03:12:14.127Z,25.95
2022-10-19T03:14:42.662Z,30.02
2022-10-19T03:17:10.203Z,20.35
2022-10-19T03:19:38.305Z,23.45
2022-10-19T03:22:06.410Z,23.38
2022-10-19T03:24:34.253Z,22.55
2022-10-19T03:27:02.562Z,26.13
2022-10-19T03:29:30.256Z,23.00
2022-10-19T03:31:58.046Z,30.58
2022-10-19T03:34:25.530Z,27.98
2022-10-19T03:36:52.897Z,28.52
2022-10-19T03:39:22.486Z,37.75
2022-10-19T03:41:50.031Z,24.85
2022-10-19T03:44:18.069Z,29.67
2022-10-19T03:46:45.824Z,29.85
2022-10-19T03:49:13.619Z,32.50
2022-10-19T03:51:41.132Z,36.55
2022-10-19T03:54:17.003Z,33.08
2022-10-19T03:59:14.758Z,28.17
2022-10-19T04:01:46.020Z,30.48
2022-10-19T04:04:19.357Z,27.25
2022-10-19T04:09:18.340Z,30.58
2022-10-19T04:11:46.542Z,36.97
2022-10-19T04:14:22.926Z,36.53
2022-10-19T04:17:01.653Z,33.72
2022-10-19T04:19:29.214Z,85.45
2022-10-19T04:21:57.771Z,61.15
2022-10-19T04:24:26.269Z,86.80
2022-10-19T04:26:58.252Z,122.70
2022-10-19T04:29:29.810Z,127.05
2022-10-19T04:31:59.306Z,98.17
2022-10-19T04:34:26.921Z,93.90
2022-10-19T04:36:54.737Z,98.53
2022-10-19T04:39:22.256Z,75.57
2022-10-19T04:41:49.704Z,61.10
2022-10-19T04:44:17.427Z,70.10
2022-10-19T04:46:45.414Z,66.75
2022-10-19T04:49:18.013Z,63.38
2022-10-19T04:51:48.225Z,61.40
2022-10-19T04:54:15.556Z,59.72
2022-10-19T04:56:42.988Z,47.90
2022-10-19T04:59:12.056Z,55.83
2022-10-19T05:01:46.559Z,41.00
2022-10-19T05:04:15.003Z,30.55
2022-10-19T05:06:42.567Z,47.20
2022-10-19T05:09:12.177Z,45.00
2022-10-19T05:11:39.830Z,37.50
2022-10-19T05:14:07.406Z,47.05
2022-10-19T05:16:35.080Z,37.05
2022-10-19T05:19:02.992Z,58.25
2022-10-19T05:21:39.004Z,76.97
2022-10-19T05:24:11.942Z,57.45
2022-10-19T05:26:39.627Z,43.45
2022-10-19T05:29:07.139Z,46.58
2022-10-19T05:31:35.137Z,43.78
2022-10-19T05:34:04.335Z,44.35
2022-10-19T05:36:37.783Z,41.70
2022-10-19T05:39:10.085Z,32.50
2022-10-19T05:41:38.504Z,28.52
2022-10-19T05:44:06.512Z,35.47
2022-10-19T05:46:34.915Z,28.27
2022-10-19T05:49:02.619Z,161.63
2022-10-19T05:51:30.083Z,151.18
2022-10-19T05:53:57.815Z,109.35
2022-10-19T05:56:28.291Z,71.55
2022-10-19T05:58:56.952Z,29.85
2022-10-19T06:01:24.637Z,26.15
2022-10-19T06:03:54.507Z,22.33
2022-10-19T06:06:22.698Z,20.75
2022-10-19T06:08:53.617Z,19.30
2022-10-19T06:11:30.174Z,18.38
2022-10-19T06:13:59.693Z,18.25
2022-10-19T06:16:27.595Z,24.63
2022-10-19T06:18:55.714Z,22.00
2022-10-19T06:21:26.588Z,19.10
2022-10-19T06:23:56.383Z,24.15
2022-10-19T06:26:24.748Z,20.15
2022-10-19T06:28:54.566Z,18.45
2022-10-19T06:31:21.784Z,25.95
2022-10-19T06:33:49.651Z,26.83
2022-10-19T06:36:20.785Z,22.70
2022-10-19T06:38:54.064Z,26.83
2022-10-19T06:41:21.426Z,26.75
2022-10-19T06:43:53.701Z,28.17
2022-10-19T06:46:23.601Z,26.08
2022-10-19T06:48:58.630Z,28.20
2022-10-19T06:51:28.140Z,30.30
2022-10-19T06:53:57.157Z,19.83
2022-10-19T06:56:25.900Z,26.70
2022-10-19T06:58:53.831Z,20.15
2022-10-19T07:01:21.763Z,22.65
2022-10-19T07:03:51.310Z,23.95
2022-10-19T07:06:19.368Z,19.25
2022-10-19T07:08:47.069Z,24.92
2022-10-19T07:11:19.628Z,22.90
2022-10-19T07:13:47.147Z,19.15
2022-10-19T07:16:20.624Z,25.00
2022-10-19T07:18:50.750Z,23.98
2022-10-19T07:21:18.962Z,23.88
2022-10-19T07:23:50.633Z,27.15
2022-10-19T07:26:27.602Z,20.80
2022-10-19T07:28:58.229Z,22.98
2022-10-19T07:31:26.996Z,28.92
2022-10-19T07:34:00.145Z,19.95
2022-10-19T07:36:28.948Z,18.60
2022-10-19T07:38:56.378Z,23.90
2022-10-19T07:41:25.662Z,22.95
2022-10-19T07:43:53.578Z,22.05
2022-10-19T07:46:23.262Z,27.98
2022-10-19T07:48:50.499Z,21.02
2022-10-19T07:51:19.418Z,21.40
2022-10-19T07:53:47.166Z,25.40
2022-10-19T07:56:17.937Z,19.73
2022-10-19T07:59:52.261Z,26.08
2022-10-19T08:02:20.362Z,30.40
2022-10-19T08:05:06.390Z,25.30
2022-10-19T08:07:34.904Z,22.10
2022-10-19T08:10:02.073Z,21.17
2022-10-19T08:12:29.197Z,21.20
2022-10-19T08:14:57.037Z,24.60
2022-10-19T08:17:24.336Z,22.25
2022-10-19T08:19:51.659Z,23.85
2022-10-19T08:22:19.090Z,21.95
2022-10-19T08:24:46.428Z,19.23
2022-10-19T08:27:15.151Z,18.08
2022-10-19T08:29:42.403Z,22.98
2022-10-19T08:32:09.762Z,21.38
2022-10-19T08:34:37.272Z,21.92
2022-10-19T08:37:10.463Z,20.85
2022-10-19T08:39:47.297Z,20.23
2022-10-19T08:43:03.264Z,8.65
2022-10-19T08:45:38.605Z,9.55
2022-10-19T08:48:27.549Z,8.55
2022-10-19T08:50:57.356Z,10.75
2022-10-19T08:53:38.445Z,12.45
2022-10-19T08:56:49.208Z,14.20
2022-10-19T08:59:53.630Z,7.32
2022-10-19T09:02:31.486Z,8.43
2022-10-19T09:05:05.904Z,15.27
2022-10-19T09:07:45.779Z,8.27
2022-10-19T09:10:17.105Z,9.75
2022-10-19T09:12:59.570Z,7.22
2022-10-19T09:15:42.037Z,8.23
2022-10-19T09:18:25.097Z,8.95
2022-10-19T09:21:08.055Z,5.33
2022-10-19T09:23:55.376Z,5.28
2022-10-19T09:26:28.306Z,5.57
2022-10-19T09:29:21.344Z,6.78
2022-10-19T09:31:54.680Z,6.75
2022-10-19T09:34:36.641Z,8.05
2022-10-19T09:37:04.503Z,7.22
2022-10-19T09:39:32.011Z,6.88
2022-10-19T09:42:17.473Z,7.68
2022-10-19T09:44:44.990Z,7.60
2022-10-19T09:47:20.305Z,7.75
2022-10-19T09:49:50.794Z,9.65
2022-10-19T09:52:34.093Z,6.18
2022-10-19T09:55:34.080Z,7.00
2022-10-19T09:58:13.905Z,5.22
2022-10-19T10:00:46.945Z,4.97
2022-10-19T10:03:26.796Z,4.07
2022-10-19T10:05:55.989Z,6.45
2022-10-19T10:08:25.954Z,7.68
2022-10-19T10:11:11.496Z,7.70
2022-10-19T10:13:48.837Z,6.85
2022-10-19T10:16:18.362Z,7.20
2022-10-19T10:18:55.070Z,8.77
2022-10-19T10:21:26.252Z,7.53
2022-10-19T10:24:11.852Z,6.95
2022-10-19T10:26:44.451Z,7.43
2022-10-19T10:29:27.904Z,6.85
2022-10-19T10:32:13.581Z,8.45
2022-10-19T10:34:51.980Z,10.65
2022-10-19T10:37:38.053Z,8.70
2022-10-19T10:40:08.126Z,8.23
2022-10-19T10:42:42.500Z,9.70
2022-10-19T10:45:39.897Z,5.70
2022-10-19T10:48:19.317Z,8.65
2022-10-19T10:50:46.711Z,5.25
2022-10-19T10:53:32.974Z,9.70
2022-10-19T10:56:00.529Z,6.93
2022-10-19T10:58:36.152Z,6.22
2022-10-19T11:01:08.057Z,11.57
2022-10-19T11:03:39.822Z,6.18
2022-10-19T11:06:11.600Z,5.97
2022-10-19T11:09:11.861Z,5.32
2022-10-19T11:11:46.928Z,6.32
2022-10-19T11:14:49.966Z,4.95
2022-10-19T11:17:30.534Z,7.05
2022-10-19T11:19:57.729Z,8.13
2022-10-19T11:22:35.775Z,7.93
2022-10-19T11:25:21.800Z,4.20
2022-10-19T11:28:11.245Z,3.85
2022-10-19T11:31:10.031Z,8.85
2022-10-19T11:34:03.549Z,5.88
2022-10-19T11:36:48.764Z,4.20
2022-10-19T11:39:34.863Z,7.55
2022-10-19T11:45:31.251Z,3.50
2022-10-19T11:48:10.840Z,6.45
2022-10-19T11:51:04.128Z,4.20
2022-10-19T11:54:23.037Z,5.85
2022-10-19T11:57:03.496Z,5.65
2022-10-19T12:00:39.794Z,6.63
2022-10-19T12:05:43.476Z,5.32
2022-10-19T12:08:37.760Z,6.45
2022-10-19T12:11:39.219Z,4.93
2022-10-19T12:14:13.621Z,6.53
2022-10-19T12:16:45.444Z,3.97
2022-10-19T12:19:27.228Z,4.82
2022-10-19T12:22:00.484Z,5.18
2022-10-19T12:24:30.969Z,5.97
2022-10-19T12:26:59.794Z,4.20
2022-10-19T12:29:39.936Z,6.55
2022-10-19T12:32:08.824Z,4.82
2022-10-19T12:34:47.041Z,8.40
2022-10-19T12:37:29.668Z,4.53
2022-10-19T12:40:00.907Z,4.43
2022-10-19T12:42:51.764Z,5.80
2022-10-19T12:45:31.562Z,4.03
2022-10-19T12:48:19.140Z,4.25
2022-10-19T12:50:49.471Z,4.57
2022-10-19T12:53:40.745Z,8.35
2022-10-19T12:56:11.454Z,6.13
2022-10-19T12:58:47.435Z,4.82
2022-10-19T13:01:18.903Z,4.88
2022-10-19T13:03:48.140Z,4.78
2022-10-19T13:06:26.506Z,8.65
2022-10-19T13:08:54.208Z,5.05
2022-10-19T13:11:23.558Z,6.03
2022-10-19T13:13:58.954Z,9.13
2022-10-19T13:16:29.495Z,7.28
2022-10-19T13:19:06.312Z,12.88
2022-10-19T13:21:55.045Z,11.60
2022-10-19T13:24:25.495Z,6.45
2022-10-19T13:27:04.949Z,7.20
2022-10-19T13:29:41.530Z,9.57
2022-10-19T13:32:45.497Z,6.05
2022-10-19T13:35:33.873Z,6.80
2022-10-19T13:38:13.075Z,10.02
2022-10-19T13:40:49.192Z,11.23
2022-10-19T13:43:27.281Z,7.00
2022-10-19T13:46:16.309Z,6.88
2022-10-19T13:49:02.959Z,8.20
2022-10-19T13:52:07.917Z,7.50
2022-10-19T13:54:50.404Z,12.00
2022-10-19T13:57:56.156Z,9.80
2022-10-19T14:00:37.198Z,9.07
2022-10-19T14:03:23.965Z,9.15
2022-10-19T14:06:15.441Z,9.48
2022-10-19T14:08:58.033Z,10.27
2022-10-19T14:11:39.961Z,10.38
2022-10-19T14:14:14.543Z,12.43
2022-10-19T14:16:56.090Z,15.38
2022-10-19T14:19:33.265Z,8.68
2022-10-19T14:22:18.435Z,9.65
2022-10-19T14:24:45.956Z,14.10
2022-10-19T14:27:19.674Z,9.00
2022-10-19T14:29:50.493Z,10.32
2022-10-19T14:32:21.479Z,7.97
2022-10-19T14:34:49.686Z,15.30
2022-10-19T14:37:21.450Z,12.30
2022-10-19T14:40:26.463Z,10.48
2022-10-19T14:42:57.344Z,10.23
2022-10-19T14:45:30.686Z,13.07
2022-10-19T14:48:02.288Z,12.60
2022-10-19T14:50:35.732Z,12.27
2022-10-19T14:53:18.299Z,8.75
2022-10-19T14:55:46.574Z,9.50
2022-10-19T14:58:20.767Z,11.70
2022-10-19T15:00:50.714Z,12.05
2022-10-19T15:03:24.920Z,12.57
2022-10-19T15:05:56.652Z,12.30
2022-10-19T15:08:42.821Z,13.68
2022-10-19T15:11:22.342Z,12.82
2022-10-19T15:14:03.997Z,12.68
2022-10-19T15:16:54.333Z,75.20
2022-10-19T15:19:32.599Z,27.00
2022-10-19T15:22:39.263Z,17.58
2022-10-19T15:25:06.591Z,10.50
2022-10-19T15:27:47.589Z,11.85
2022-10-19T15:30:17.844Z,12.38
2022-10-19T15:32:48.615Z,16.17
2022-10-19T15:35:25.487Z,11.85
2022-10-19T15:38:00.899Z,12.02
2022-10-19T15:40:40.143Z,15.73
2022-10-19T15:43:35.623Z,18.33
2022-10-19T15:46:20.545Z,17.50
2022-10-19T15:48:55.949Z,15.70
2022-10-19T15:51:26.377Z,14.55
2022-10-19T15:54:02.984Z,13.95
2022-10-19T15:56:32.556Z,35.13
2022-10-19T15:59:01.910Z,20.77
2022-10-19T16:01:32.441Z,31.48
2022-10-19T16:04:00.402Z,16.67
2022-10-19T16:06:30.724Z,14.48
2022-10-19T16:09:00.078Z,13.50
2022-10-19T16:11:29.229Z,14.45
2022-10-19T16:13:56.552Z,12.23
2022-10-19T16:16:26.722Z,13.77
2022-10-19T16:18:55.012Z,16.48
2022-10-19T16:21:32.468Z,20.55
2022-10-19T16:23:59.705Z,18.42
2022-10-19T16:26:28.033Z,16.08
2022-10-19T16:28:55.683Z,21.25
2022-10-19T16:31:23.762Z,14.48
2022-10-19T16:33:52.022Z,17.23
2022-10-19T16:36:20.483Z,15.27
2022-10-19T16:38:48.156Z,15.85
2022-10-19T16:41:16.491Z,14.75
2022-10-19T16:43:43.993Z,16.15
2022-10-19T16:46:11.574Z,12.55
2022-10-19T16:48:38.907Z,17.55
2022-10-19T16:51:05.997Z,18.48
2022-10-19T16:53:34.431Z,17.13
2022-10-19T16:56:10.701Z,21.45
2022-10-19T16:58:38.597Z,22.95
2022-10-19T17:01:10.764Z,20.20
2022-10-19T17:03:38.278Z,16.13
2022-10-19T17:06:07.766Z,22.88
2022-10-19T17:08:36.968Z,20.05
2022-10-19T17:11:34.823Z,24.35
2022-10-19T17:14:05.931Z,20.05
2022-10-19T17:16:35.392Z,20.90
2022-10-19T17:19:05.136Z,19.95
2022-10-19T17:21:38.065Z,34.72
2022-10-19T17:24:07.876Z,28.27
2022-10-19T17:26:41.986Z,22.45
2022-10-19T17:29:10.036Z,26.15
2022-10-19T17:31:39.955Z,21.67
2022-10-19T17:34:08.743Z,26.30
2022-10-19T17:39:17.749Z,27.58
2022-10-19T17:41:47.786Z,28.80
2022-10-19T17:44:18.826Z,22.27
2022-10-19T17:46:46.559Z,30.85
2022-10-19T17:49:14.242Z,23.35
2022-10-19T17:51:42.199Z,27.15
2022-10-19T17:54:13.274Z,19.88
2022-10-19T17:56:41.468Z,22.65
2022-10-19T17:59:09.239Z,25.48
2022-10-19T18:01:37.709Z,22.08
2022-10-19T18:04:06.008Z,26.33
2022-10-19T18:06:35.512Z,24.27
2022-10-19T18:09:05.916Z,27.00
2022-10-19T18:11:37.489Z,30.13
2022-10-19T18:14:06.119Z,21.90
2022-10-19T18:16:37.139Z,25.48
2022-10-19T18:19:05.824Z,27.85
2022-10-19T18:21:36.536Z,20.40
2022-10-19T18:24:03.867Z,24.13
2022-10-19T18:26:33.198Z,19.27
2022-10-19T18:29:02.684Z,23.88
2022-10-19T18:31:31.778Z,43.47
2022-10-19T18:34:00.264Z,101.35
2022-10-19T18:36:27.959Z,92.53
2022-10-19T18:38:57.737Z,62.17
2022-10-19T18:41:25.627Z,40.17
2022-10-19T18:43:55.849Z,27.00
2022-10-19T18:46:24.685Z,30.67
2022-10-19T18:48:53.772Z,29.73
2022-10-19T18:51:22.778Z,23.67
2022-10-19T18:53:50.619Z,24.05
2022-10-19T18:56:20.475Z,24.45
2022-10-19T18:58:48.236Z,24.05
2022-10-19T19:01:23.078Z,27.90
2022-10-19T19:03:52.663Z,25.05
2022-10-19T19:06:26.275Z,26.23
2022-10-19T19:11:29.604Z,26.48
2022-10-19T19:14:03.957Z,28.90
2022-10-19T19:16:35.727Z,34.28
2022-10-19T19:19:03.668Z,27.45
2022-10-19T19:21:32.338Z,27.63
2022-10-19T19:24:02.495Z,32.55
2022-10-19T19:26:32.915Z,61.17
2022-10-19T19:29:00.119Z,68.75
2022-10-19T19:31:27.550Z,95.90
2022-10-19T19:33:55.192Z,49.20
2022-10-19T19:36:22.553Z,34.63
2022-10-19T19:38:51.919Z,33.13
2022-10-19T19:41:19.210Z,32.72
2022-10-19T19:43:47.033Z,48.08
2022-10-19T19:46:19.063Z,42.58
2022-10-19T19:48:48.143Z,36.42
2022-10-19T19:51:21.282Z,38.92
2022-10-19T19:53:48.530Z,39.63
2022-10-19T19:56:16.750Z,34.92
2022-10-19T19:58:45.655Z,39.33
2022-10-19T20:01:19.142Z,35.47
2022-10-19T20:06:18.682Z,37.55
2022-10-19T20:11:17.849Z,38.28
2022-10-19T20:13:46.141Z,44.58
2022-10-19T20:16:17.176Z,33.63
2022-10-19T20:18:47.093Z,33.08
2022-10-19T20:21:15.798Z,41.08
2022-10-19T20:23:49.798Z,32.05
2022-10-19T20:26:25.038Z,35.47
2022-10-19T20:28:52.999Z,36.67
2022-10-19T20:31:21.195Z,40.85
2022-10-19T20:33:48.858Z,34.75
2022-10-19T20:36:23.275Z,36.53
2022-10-19T20:38:59.527Z,36.13
2022-10-19T20:41:28.579Z,37.40
2022-10-19T20:44:00.116Z,164.07
2022-10-19T20:49:01.316Z,65.22
2022-10-19T20:51:34.533Z,40.28
2022-10-19T20:54:05.411Z,42.42
2022-10-19T20:56:36.494Z,37.92
2022-10-19T20:59:08.295Z,35.97
2022-10-19T21:01:38.119Z,34.55
2022-10-19T21:04:08.249Z,36.22
2022-10-19T21:06:39.496Z,34.75
2022-10-19T21:09:08.499Z,33.70
2022-10-19T21:11:38.634Z,33.53
2022-10-19T21:14:13.541Z,36.30
2022-10-19T21:16:41.332Z,39.80
2022-10-19T21:19:13.325Z,37.95
2022-10-19T21:21:44.611Z,33.08
2022-10-19T21:24:20.468Z,33.50
2022-10-19T21:26:49.352Z,32.70
2022-10-19T21:29:17.285Z,34.90
2022-10-19T21:31:49.119Z,30.27
2022-10-19T21:34:19.628Z,32.40
2022-10-19T21:36:47.325Z,39.42
2022-10-19T21:39:15.372Z,33.75
2022-10-19T21:41:42.577Z,39.40
2022-10-19T21:44:10.020Z,36.53
2022-10-19T21:46:37.537Z,35.38
2022-10-19T21:49:05.828Z,38.28
2022-10-19T21:51:39.794Z,37.65
2022-10-19T21:56:43.393Z,43.03
2022-10-19T21:59:12.384Z,39.77
2022-10-19T22:01:41.581Z,37.33
2022-10-19T22:04:14.962Z,39.55
2022-10-19T22:06:43.520Z,40.28
2022-10-19T22:09:41.026Z,41.40
2022-10-19T22:12:18.643Z,44.60
2022-10-19T22:14:45.853Z,41.25
2022-10-19T22:17:13.648Z,37.88
2022-10-19T22:19:41.148Z,44.28
2022-10-19T22:22:08.342Z,38.22
2022-10-19T22:24:39.151Z,43.85
2022-10-19T22:27:06.518Z,40.88
2022-10-19T22:29:33.750Z,41.25
2022-10-19T22:32:01.220Z,44.30
2022-10-19T22:34:56.129Z,39.58
2022-10-19T22:37:23.778Z,46.97
2022-10-19T22:39:51.411Z,43.58
2022-10-19T22:42:30.981Z,42.28
2022-10-19T22:45:00.121Z,42.13
2022-10-19T22:47:30.377Z,39.35
2022-10-19T22:50:01.073Z,38.55
2022-10-19T22:52:29.374Z,36.30
2022-10-19T22:54:57.810Z,42.38
2022-10-19T22:57:25.512Z,40.88
2022-10-19T22:59:53.026Z,42.03
2022-10-19T23:02:22.936Z,39.97
2022-10-19T23:04:58.534Z,42.25
2022-10-19T23:07:32.165Z,44.92
2022-10-19T23:10:00.639Z,41.70
2022-10-19T23:12:32.959Z,40.22
2022-10-19T23:15:00.821Z,42.13
2022-10-19T23:17:30.654Z,40.08
2022-10-19T23:19:58.193Z,38.58
2022-10-19T23:22:25.382Z,34.80
2022-10-19T23:24:52.616Z,39.67
2022-10-19T23:27:21.417Z,38.70
2022-10-19T23:29:48.739Z,35.70
2022-10-19T23:32:16.016Z,37.92
2022-10-19T23:34:46.005Z,36.65
2022-10-19T23:37:16.508Z,37.58
2022-10-19T23:39:44.024Z,41.05
2022-10-19T23:42:11.212Z,40.28
2022-10-19T23:44:38.996Z,37.75
2022-10-19T23:47:06.296Z,41.92
2022-10-19T23:49:33.883Z,37.53
2022-10-19T23:52:01.497Z,35.97
2022-10-19T23:54:28.703Z,31.50
2022-10-19T23:56:56.404Z,36.75
2022-10-19T23:59:23.887Z,37.85
